Historique des stations

Station météo de Tour-en-Sologne

Altitude de la station : 97 m







Données météorologiques pour le 01/10/2022
Date
Heure
Températures Humidité Point de rosée Vitesse
du vent
Direction Rafales Windchill Pression Pluviométrie
Cumul
Date
Heure
Températures Humidité Point de rosée Vitesse
du vent
Direction Rafales Windchill Pression Pluviométrie
Cumul
01/10/2022 17:0318.6 °C87 %16.7 °C11 km/hSO16 km/h17.8 1017 hPa3.6 mm
01/10/2022 17:0018.6 °C87 %16.7 °C6 km/hNO37 km/h18.3 1017 hPa3.6 mm
01/10/2022 16:4819.1 °C84 %16.1 °C13 km/hO24 km/h18.3 1017 hPa3.6 mm
01/10/2022 16:4519.1 °C85 %16.7 °C10 km/hSO37 km/h18.9 1017 hPa3.6 mm
01/10/2022 16:3318.4 °C89 %16.7 °C6 km/hNO18 km/h18.3 1017 hPa3.6 mm
01/10/2022 16:3018.3 °C89 %16.7 °C13 km/hONO37 km/h17.8 1017 hPa3.6 mm
01/10/2022 16:1818.1 °C91 %16.7 °C6 km/hO21 km/h18.3 1017 hPa3.6 mm
01/10/2022 16:1518.1 °C91 %16.7 °C8 km/hONO37 km/h18.3 1017 hPa3.6 mm
01/10/2022 16:0318.1 °C89 %16.1 °C13 km/hOSO19 km/h17.8 1017 hPa3.6 mm
01/10/2022 16:0017.9 °C90 %16.1 °C16 km/hOSO37 km/h16.1 1017 hPa3.6 mm
01/10/2022 15:4817.8 °C90 %16.1 °C10 km/hONO16 km/h17.8 1017 hPa3.6 mm
01/10/2022 15:4517.8 °C90 %16.1 °C5 km/hNO37 km/h17.8 1017 hPa3.6 mm
01/10/2022 15:3318.5 °C88 %16.7 °C8 km/hO26 km/h18.3 1017 hPa3.6 mm
01/10/2022 15:3018.7 °C87 %16.7 °C13 km/hO37 km/h18.3 1017 hPa3.6 mm
01/10/2022 15:1819.1 °C83 %16.1 °C18 km/hO24 km/h17.2 1016 hPa3.6 mm
01/10/2022 15:1519.1 °C83 %16.1 °C16 km/hSSO37 km/h17.8 1016 hPa3.6 mm
01/10/2022 15:0319.2 °C82 %16.1 °C19 km/hO26 km/h17.8 1016 hPa3.6 mm
01/10/2022 15:0019.3 °C84 %16.7 °C14 km/hOSO37 km/h18.3 1016 hPa3.6 mm
01/10/2022 14:4819.3 °C83 %16.7 °C14 km/hNO26 km/h18.3 1016 hPa3.6 mm
01/10/2022 14:4519.3 °C84 %16.7 °C21 km/hOSO37 km/h17.2 1016 hPa3.6 mm
01/10/2022 14:3319.1 °C86 %16.7 °C11 km/hO29 km/h18.3 1016 hPa3.6 mm
01/10/2022 14:3018.9 °C86 %16.7 °C10 km/hONO37 km/h18.9 1016 hPa3.6 mm
01/10/2022 14:1818.6 °C87 %16.7 °C2 km/hOSO24 km/h18.3 1016 hPa3.6 mm
01/10/2022 14:1518.5 °C86 %16.1 °C10 km/hONO37 km/h18.3 1016 hPa3.6 mm
01/10/2022 14:0318.4 °C88 %16.7 °C23 km/hSO23 km/h16.1 1016 hPa3.6 mm
01/10/2022 14:0118.3 °C89 %16.7 °C13 km/hONO37 km/h17.8 1016 hPa3.6 mm
01/10/2022 13:4818.3 °C87 %16.1 °C3 km/hO21 km/h18.3 1016 hPa3.6 mm
01/10/2022 13:4618.3 °C88 %16.1 °C8 km/hO37 km/h18.3 1016 hPa3.6 mm
01/10/2022 13:3317.6 °C92 %16.1 °C8 km/hOSO24 km/h17.8 1015 hPa3.6 mm
01/10/2022 13:3117.4 °C92 %16.1 °C2 km/hOSO37 km/h17.2 1016 hPa3.6 mm
01/10/2022 13:1817.1 °C93 %16.1 °C2 km/hO19 km/h17.2 1015 hPa3.6 mm
01/10/2022 13:1617.1 °C93 %16.1 °C6 km/hOSO37 km/h17.2 1015 hPa3.6 mm
01/10/2022 13:0316.7 °C95 %16.1 °C3 km/hSSO21 km/h16.7 1015 hPa3.6 mm
01/10/2022 13:0016.6 °C95 %16.1 °C13 km/hSO37 km/h16.1 1015 hPa3.6 mm
01/10/2022 12:4816.4 °C95 %15.6 °C3 km/hO21 km/h16.7 1015 hPa3.6 mm
01/10/2022 12:4516.4 °C95 %15.6 °C10 km/hOSO37 km/h16.7 1015 hPa3.6 mm
01/10/2022 12:3316.6 °C97 %16.1 °C16 km/hOSO24 km/h15.0 1015 hPa3.6 mm
01/10/2022 12:3016.6 °C98 %16.1 °C11 km/hOSO37 km/h16.1 1015 hPa3.6 mm
01/10/2022 12:1816.4 °C98 %16.1 °C8 km/hOSO18 km/h16.7 1015 hPa3.6 mm
01/10/2022 12:1516.4 °C98 %16.1 °C6 km/hOSO37 km/h16.7 1015 hPa3.6 mm
01/10/2022 12:0316.3 °C99 %16.1 °C5 km/hO13 km/h16.1 1015 hPa3.6 mm
01/10/2022 12:0016.3 °C99 %16.1 °C6 km/hOSO37 km/h16.1 1014 hPa3.6 mm
01/10/2022 11:4816.2 °C99 %16.1 °C5 km/hSO13 km/h16.1 1014 hPa3.6 mm
01/10/2022 11:4516.2 °C100 %16.1 °C6 km/hOSO37 km/h16.1 1014 hPa3.6 mm
01/10/2022 11:3316.1 °C100 %16.1 °C3 km/hOSO18 km/h16.1 1014 hPa3.6 mm
01/10/2022 11:3016.1 °C100 %16.1 °C8 km/hSO37 km/h16.1 1014 hPa3.6 mm
01/10/2022 11:1815.9 °C100 %16.1 °C11 km/hOSO18 km/h15.6 1014 hPa3.6 mm
01/10/2022 11:1516.0 °C100 %16.1 °C8 km/hOSO37 km/h16.1 1014 hPa3.6 mm
01/10/2022 11:0315.8 °C100 %16.1 °C8 km/hOSO19 km/h16.1 1014 hPa3.6 mm
01/10/2022 11:0015.8 °C100 %15.6 °C11 km/hOSO37 km/h15.0 1014 hPa3.6 mm
01/10/2022 10:4815.7 °C100 %15.6 °C11 km/hOSO16 km/h15.0 1014 hPa3.6 mm
01/10/2022 10:4515.6 °C100 %15.6 °C2 km/hONO37 km/h15.6 1014 hPa3.6 mm
01/10/2022 10:3315.5 °C100 %15.6 °C3 km/hOSO14 km/h15.6 1014 hPa3.6 mm
01/10/2022 10:3015.5 °C100 %15.6 °C10 km/hSSO37 km/h15.0 1014 hPa3.6 mm
01/10/2022 10:1815.4 °C100 %15.6 °C3 km/hOSO19 km/h15.6 1013 hPa3.4 mm
01/10/2022 10:1515.4 °C100 %15.6 °C11 km/hOSO37 km/h15.0 1013 hPa3.4 mm
01/10/2022 10:0315.2 °C100 %15.0 °C3 km/hOSO18 km/h15.0 1013 hPa3.4 mm
01/10/2022 10:0015.2 °C100 %15.0 °C11 km/hO37 km/h14.4 1013 hPa3.4 mm
01/10/2022 09:4815.1 °C100 %15.0 °C10 km/hSO23 km/h14.4 1013 hPa3.4 mm
01/10/2022 09:4515.0 °C100 %15.0 °C10 km/hSSO37 km/h14.4 1013 hPa3.4 mm
01/10/2022 09:3314.8 °C100 %15.0 °C3 km/hSO18 km/h15.0 1013 hPa3.4 mm
01/10/2022 09:3014.8 °C100 %15.0 °C8 km/hOSO37 km/h15.0 1013 hPa3.4 mm
01/10/2022 09:1814.7 °C100 %14.4 °C3 km/hS14 km/h14.4 1013 hPa3.4 mm
01/10/2022 09:1514.6 °C100 %14.4 °C6 km/hOSO37 km/h14.4 1013 hPa3.4 mm
01/10/2022 09:0314.4 °C100 %14.4 °C5 km/hONO21 km/h14.4 1013 hPa3.2 mm
01/10/2022 09:0014.4 °C100 %14.4 °C11 km/hSO37 km/h13.3 1013 hPa3.2 mm
01/10/2022 08:4814.3 °C100 %14.4 °C3 km/hSO21 km/h14.4 1012 hPa3.2 mm
01/10/2022 08:4514.3 °C100 %14.4 °C10 km/hSO37 km/h13.9 1012 hPa3.2 mm
01/10/2022 08:3314.1 °C100 %13.9 °C11 km/hS23 km/h12.8 1012 hPa3.2 mm
01/10/2022 08:3114.1 °C100 %13.9 °C2 km/hO37 km/h13.9 1012 hPa3.2 mm
01/10/2022 08:1813.9 °C100 %13.9 °C5 km/hSO29 km/h13.9 1012 hPa3.2 mm
01/10/2022 08:1513.8 °C100 %13.9 °C18 km/hSO37 km/h11.7 1012 hPa3.2 mm
01/10/2022 08:0313.7 °C100 %13.9 °C10 km/hSO19 km/h13.3 1012 hPa3.2 mm
01/10/2022 08:0013.7 °C100 %13.9 °C8 km/hSO37 km/h13.3 1012 hPa3.2 mm
01/10/2022 07:4813.6 °C100 %13.3 °C6 km/hSO19 km/h13.3 1012 hPa3.2 mm
01/10/2022 07:4513.6 °C100 %13.3 °C6 km/hSSO37 km/h13.3 1012 hPa3.2 mm
01/10/2022 07:3313.4 °C100 %13.3 °C5 km/hSSO18 km/h13.3 1012 hPa3.2 mm
01/10/2022 07:3013.4 °C100 %13.3 °C14 km/hSSE37 km/h11.7 1012 hPa3.2 mm
01/10/2022 07:1813.3 °C100 %13.3 °C13 km/hSO21 km/h11.7 1012 hPa3.2 mm
01/10/2022 07:1513.2 °C100 %13.3 °C16 km/hSO37 km/h11.1 1011 hPa3.2 mm
01/10/2022 07:0313.2 °C100 %13.3 °C8 km/hSO24 km/h12.8 1012 hPa3.2 mm
01/10/2022 07:0113.2 °C100 %13.3 °C2 km/hOSO37 km/h13.3 1011 hPa3.2 mm
01/10/2022 06:4813.0 °C99 %12.8 °C3 km/hS37 km/h12.8 1011 hPa3.2 mm
01/10/2022 06:4613.0 °C99 %12.8 °C6 km/hOSO32 km/h12.8 1011 hPa3.2 mm
01/10/2022 06:3312.8 °C99 %12.8 °C11 km/hSSO21 km/h11.7 1011 hPa3.2 mm
01/10/2022 06:3112.8 °C99 %12.8 °C16 km/hO31 km/h10.6 1012 hPa3.2 mm
01/10/2022 06:1812.8 °C99 %12.8 °C6 km/hSO32 km/h12.8 1011 hPa3.2 mm
01/10/2022 06:1612.8 °C99 %12.8 °C2 km/hO31 km/h12.8 1012 hPa3.2 mm
01/10/2022 06:0412.8 °C99 %12.8 °C8 km/hOSO26 km/h12.2 1011 hPa3 mm
01/10/2022 06:0112.8 °C99 %12.8 °C8 km/hSO31 km/h12.2 1012 hPa3 mm
01/10/2022 05:4812.8 °C99 %12.8 °C6 km/hS31 km/h12.8 1011 hPa2.6 mm
01/10/2022 05:4612.7 °C99 %12.8 °C10 km/hSSO31 km/h11.7 1011 hPa2.6 mm
01/10/2022 05:3312.6 °C99 %12.2 °C13 km/hSSO31 km/h11.1 1011 hPa2.6 mm
01/10/2022 05:3112.5 °C99 %12.2 °C10 km/hS31 km/h11.7 1011 hPa2.6 mm
01/10/2022 05:1912.4 °C99 %12.2 °C10 km/hONO21 km/h11.1 1011 hPa2.6 mm
01/10/2022 05:1612.4 °C99 %12.2 °C6 km/hOSO31 km/h12.2 1012 hPa2.6 mm
01/10/2022 05:0412.3 °C99 %12.2 °C10 km/hSO23 km/h11.1 1012 hPa2.4 mm
01/10/2022 05:0112.3 °C99 %12.2 °C8 km/hSO31 km/h11.7 1012 hPa2.4 mm
01/10/2022 04:4812.2 °C99 %12.2 °C5 km/hO19 km/h12.2 1012 hPa2.4 mm
01/10/2022 04:4512.2 °C99 %12.2 °C2 km/hSO31 km/h12.2 1012 hPa2.4 mm
01/10/2022 04:3312.1 °C99 %12.2 °C10 km/hS24 km/h11.1 1012 hPa2.4 mm
01/10/2022 04:3012.1 °C99 %12.2 °C8 km/hSO31 km/h11.7 1012 hPa2.4 mm
01/10/2022 04:1811.9 °C99 %11.7 °C2 km/hSO21 km/h12.2 1012 hPa2.4 mm
01/10/2022 04:1511.9 °C99 %11.7 °C8 km/hSSO31 km/h11.7 1012 hPa2.4 mm
01/10/2022 04:0311.8 °C98 %11.7 °C10 km/hS23 km/h10.6 1012 hPa2.4 mm
01/10/2022 04:0011.8 °C98 %11.7 °C10 km/hSSO31 km/h10.6 1012 hPa2.4 mm
01/10/2022 03:4811.8 °C98 %11.7 °C5 km/hSO21 km/h11.7 1012 hPa2 mm
01/10/2022 03:4511.8 °C98 %11.7 °C13 km/hSSO31 km/h10.0 1012 hPa2 mm
01/10/2022 03:3311.8 °C98 %11.7 °C3 km/hOSO29 km/h11.7 1012 hPa2 mm
01/10/2022 03:3011.8 °C98 %11.7 °C6 km/hSO31 km/h11.7 1012 hPa2 mm
01/10/2022 03:1811.8 °C98 %11.7 °C14 km/hSO26 km/h9.4 1013 hPa1.8 mm
01/10/2022 03:1511.8 °C98 %11.7 °C6 km/hSSO31 km/h11.7 1013 hPa1.8 mm
01/10/2022 03:0311.7 °C98 %11.7 °C10 km/hOSO24 km/h10.6 1013 hPa1.8 mm
01/10/2022 03:0011.7 °C98 %11.7 °C3 km/hS31 km/h11.7 1013 hPa1.8 mm
01/10/2022 02:5211.7 °C98 %11.7 °C8 km/hOSO26 km/h11.1 1013 hPa1.8 mm
01/10/2022 02:4511.6 °C98 %11.1 °C10 km/hS31 km/h10.6 1013 hPa1.8 mm
01/10/2022 02:3611.6 °C98 %11.1 °C2 km/hSSE21 km/h11.7 1013 hPa1.8 mm
01/10/2022 02:3011.6 °C98 %11.1 °C6 km/hS31 km/h11.7 1013 hPa1.8 mm
01/10/2022 02:2111.6 °C98 %11.1 °C2 km/hOSO31 km/h11.7 1013 hPa1.6 mm
01/10/2022 02:1511.5 °C98 %11.1 °C6 km/hS24 km/h11.7 1013 hPa1.6 mm
01/10/2022 02:0711.4 °C98 %11.1 °C11 km/hSSO21 km/h10.0 1013 hPa1.6 mm
01/10/2022 02:0111.4 °C97 %11.1 °C2 km/hSSO24 km/h11.7 1013 hPa1.6 mm
01/10/2022 01:5211.3 °C97 %11.1 °C3 km/hSSO24 km/h11.1 1013 hPa1.6 mm
01/10/2022 01:4511.3 °C97 %11.1 °C10 km/hS19 km/h10.0 1013 hPa1.6 mm
01/10/2022 01:3311.3 °C97 %11.1 °C3 km/hSSO16 km/h11.1 1013 hPa1.4 mm
01/10/2022 01:3011.3 °C97 %11.1 °C3 km/hSO19 km/h11.1 1013 hPa1.2 mm
01/10/2022 01:1811.2 °C96 %10.6 °C14 km/hS16 km/h8.9 1014 hPa0.8 mm
01/10/2022 01:1511.2 °C96 %10.6 °C8 km/hSO18 km/h10.0 1014 hPa0.8 mm
01/10/2022 01:0311.1 °C96 %10.6 °C10 km/hSSO13 km/h10.0 1014 hPa0.6 mm
01/10/2022 01:0011.1 °C96 %10.6 °C3 km/hSSO18 km/h11.1 1014 hPa0.6 mm
01/10/2022 00:4811.1 °C95 %10.6 °C2 km/hSO16 km/h11.1 1014 hPa0.6 mm
01/10/2022 00:4511.1 °C95 %10.6 °C3 km/hS16 km/h11.1 1014 hPa0.4 mm
01/10/2022 00:3311.1 °C95 %10.6 °C13 km/hOSO13 km/h9.4 1014 hPa0.2 mm
01/10/2022 00:3011.1 °C94 %10.0 °C-SSO13 km/h11.1 1014 hPa0.2 mm
01/10/2022 00:1811.2 °C94 %10.6 °C3 km/hS13 km/h11.1 1014 hPa0.2 mm
01/10/2022 00:1511.2 °C93 %10.0 °C10 km/hSSO13 km/h10.0 1014 hPa0.2 mm
01/10/2022 00:0511.3 °C92 %10.0 °C10 km/hSO10 km/h10.0 1014 hPa-
01/10/2022 00:0011.4 °C92 %10.0 °C2 km/hSSO3 km/h11.7 1014 hPa-


Minima :

Température : 11.1 °C
Humidité : 82 %
Point de rosée : 10.0 °C
Vent moyen : 2 km/h
Windchill : 8.9
Pression atm. : 1011 hPa
Maxima :

Température : 19.3 °C
Humidité : 100 %
Point de rosée : 16.7 °C
Vent moyen : 23 km/h
Windchill : 18.9
Pression atm. : 1017 hPa
Rafales max : 37 km/h
Cumul de pluie sur 24H : 3.6 mm

Tour-en-Sologne est une commune du département Loir-et-Cher (41).
La station météorologique du réseau de l'association la plus proche de Tour-en-Sologne est celle de Chailles



Icône Facebook Association Météo Centre Icône Twitter Association Météo Centre Icône Chaîne Youtube Association Météo Centre Icône contact Association Météo Centre Icône Insta Association Météo Centre